Friedheim, MO (63747)

11:57 PM CDT on May 27, 2017 (GMT -0500)
Northwest Jackson | | Change Station
Active Advisory: Flood Warning Active Notice: Public Information Statement

Elev 465 ft 37.39 °N, 89.68 °W | Updated 18 seconds ago

Mostly Cloudy
Mostly Cloudy
63.3 °F
Feels Like 63.3 °F
N
5.8
Wind Variable Wind from East
Gusts 5.8 mph

Today
High -- | Low -- °F
--% Chance of Precip.
Yesterday
High -- | Low -- °F
Precip. -- in
Pressure 29.82 in
Visibility 9.0 miles
Clouds Few 8000 ft
Few 10000 ft
Overcast 11000 ft
Dew Point 62 °F
Humidity 95%
Rainfall 0.00 in
Snow Depth Not available.
5:41 AM 8:11 PM
Waxing Crescent, 8% visible
METAR KCGI 280453Z AUTO 10011KT 9SM -RA FEW080 FEW100 OVC110 18/17 A2983 RMK AO2 TSB0358E13B25E40 PRESFR SLP098 P0010 T01780167
Pressure 29.82 in
Visibility 9.0 miles
Clouds Few 8000 ft
Few 10000 ft
Overcast 11000 ft
Dew Point 62 °F
Humidity 95%
Rainfall 0.00 in
Snow Depth Not available.
5:41 AM 8:11 PM
Waxing Crescent, 8% visible
METAR KCGI 280453Z AUTO 10011KT 9SM -RA FEW080 FEW100 OVC110 18/17 A2983 RMK AO2 TSB0358E13B25E40 PRESFR SLP098 P0010 T01780167

Get Your Daily Forecast Email!

Thanks for signing up!

Be on the lookout for a verification email in your inbox.

You'll start receiving severe weather alerts in your inbox..

×

10-Day Weather Forecast

Almanac

Astronomy

May. 27, 2017 Rise Set
Actual Time
Civil Twilight
Nautical Twilight
Astronomical Twilight
Moon
Length of Visible Light
Length of Day
Tomorrow will be .
, % of the Moon is Illuminated

Today's Extremes

State Highs State Lows

Community

WunderPhotos

Category 6

Welcome to Category 6. This is the collective home for Weather Underground's featured writeups by Dr. Jeff Masters (right), Bob Henson (left), Chris Burt, and other regular contributors.

Nearby

Air Quality

  Air Quality AQ Index Pollutant
Not available.

Snow Depth

Station Depth Elevation

Earthquake Activity

City Distance Mag. Time & Date
Minimum magnitude displayed is 2.5.

Coastal Water Temperatures

Place Temperature

Stations

Nearby Weather Stations

Station Location Temp. Windchill Dew Point Humidity Wind Precip. Elev Updated Type
                   

Watches & Warnings

Flood Warning
Issued: 7:54 PM CDT May. 27, 2017 – National Weather Service

The Flood Warning continues for
the Mississippi River at Cape Girardeau
* until further notice.
* At 7:30 PM Saturday the stage was 36.3 feet.
* Flood stage is 32.0 feet.
* Minor flooding is occurring and minor flooding is forecast.
* Forecast... the river will continue a slow fall but will stay
above flood stage into the foreseeable future.
* Impact... at 36.0 feet... the flood gate on Themis street closes.


Lat... Lon 3769 8959 3769 8935 3744 8934 3725 8941
      3723 8959 3732 8963